createdAt,value
2023-12-29T00:02:54.864Z,32.78
2023-12-29T00:06:14.859Z,31.65
2023-12-29T00:09:47.608Z,32.83
2023-12-29T00:13:11.810Z,32.60
2023-12-29T00:16:32.860Z,31.77
2023-12-29T00:19:35.967Z,32.53
2023-12-29T00:22:41.637Z,32.30
2023-12-29T00:25:53.104Z,32.60
2023-12-29T00:29:00.544Z,32.73
2023-12-29T00:32:14.076Z,33.47
2023-12-29T00:35:30.236Z,31.63
2023-12-29T00:38:35.670Z,31.70
2023-12-29T00:41:52.109Z,32.95
2023-12-29T00:45:14.524Z,33.70
2023-12-29T00:48:17.974Z,31.83
2023-12-29T00:51:21.580Z,32.97
2023-12-29T00:54:30.146Z,31.50
2023-12-29T00:57:53.621Z,30.77
2023-12-29T01:01:19.696Z,31.70
2023-12-29T01:04:37.010Z,31.30
2023-12-29T01:07:52.855Z,30.55
2023-12-29T01:11:11.985Z,30.25
2023-12-29T01:14:22.056Z,33.67
2023-12-29T01:17:28.830Z,31.67
2023-12-29T01:20:32.458Z,33.20
2023-12-29T01:23:35.889Z,32.95
2023-12-29T01:26:45.496Z,30.77
2023-12-29T01:29:54.059Z,34.13
2023-12-29T01:33:17.602Z,32.03
2023-12-29T01:36:35.019Z,31.27
2023-12-29T01:39:38.282Z,32.15
2023-12-29T01:42:50.120Z,32.63
2023-12-29T01:45:58.238Z,30.42
2023-12-29T01:49:11.723Z,31.47
2023-12-29T01:52:33.528Z,30.67
2023-12-29T01:55:48.302Z,32.30
2023-12-29T01:59:14.947Z,30.88
2023-12-29T02:02:32.645Z,30.45
2023-12-29T02:05:47.856Z,29.30
2023-12-29T02:09:05.675Z,30.35
2023-12-29T02:12:26.434Z,30.42
2023-12-29T02:15:50.647Z,30.00
2023-12-29T02:18:58.718Z,32.67
2023-12-29T02:22:02.631Z,32.03
2023-12-29T02:25:20.305Z,32.47
2023-12-29T02:28:37.573Z,33.33
2023-12-29T02:31:44.947Z,32.08
2023-12-29T02:34:54.859Z,35.95
2023-12-29T02:38:00.203Z,32.57
2023-12-29T02:41:09.989Z,32.05
2023-12-29T02:44:28.870Z,32.50
2023-12-29T02:47:37.901Z,31.90
2023-12-29T02:50:41.760Z,32.47
2023-12-29T02:53:56.309Z,31.83
2023-12-29T02:57:12.385Z,31.30
2023-12-29T03:00:38.218Z,31.35
2023-12-29T03:03:56.176Z,30.88
2023-12-29T03:07:19.360Z,33.80
2023-12-29T03:10:42.275Z,31.00
2023-12-29T03:14:04.675Z,30.98
2023-12-29T03:17:23.306Z,31.83
2023-12-29T03:20:50.411Z,32.65
2023-12-29T03:24:09.254Z,28.27
2023-12-29T03:27:29.500Z,25.33
2023-12-29T03:30:38.336Z,25.35
2023-12-29T03:34:01.398Z,23.83
2023-12-29T03:37:24.307Z,23.65
2023-12-29T03:40:49.278Z,25.10
2023-12-29T03:44:15.612Z,23.50
2023-12-29T03:47:37.379Z,24.15
2023-12-29T03:50:41.722Z,24.58
2023-12-29T03:53:51.204Z,24.15
2023-12-29T03:56:55.440Z,23.65
2023-12-29T03:59:58.274Z,23.83
2023-12-29T04:03:02.212Z,25.08
2023-12-29T04:06:11.351Z,24.70
2023-12-29T04:09:21.914Z,24.77
2023-12-29T04:12:37.023Z,27.05
2023-12-29T04:16:00.284Z,27.77
2023-12-29T04:19:20.787Z,30.17
2023-12-29T04:22:45.235Z,31.17
2023-12-29T04:26:10.304Z,34.00
2023-12-29T04:29:25.122Z,37.00
2023-12-29T04:32:48.124Z,37.17
2023-12-29T04:36:13.128Z,39.28
2023-12-29T04:39:22.596Z,38.30
2023-12-29T04:42:26.815Z,36.95
2023-12-29T04:45:33.705Z,39.80
2023-12-29T04:48:43.532Z,38.23
2023-12-29T04:52:03.160Z,39.58
2023-12-29T04:55:07.927Z,40.33
2023-12-29T04:58:11.401Z,38.28
2023-12-29T05:01:28.135Z,39.65
2023-12-29T05:04:51.185Z,41.07
2023-12-29T05:08:00.934Z,41.67
2023-12-29T05:11:10.522Z,45.20
2023-12-29T05:14:21.410Z,40.25
2023-12-29T05:17:38.635Z,40.67
2023-12-29T05:21:03.223Z,38.90
2023-12-29T05:24:20.142Z,37.80
2023-12-29T05:27:37.506Z,37.88
2023-12-29T05:30:55.337Z,35.45
2023-12-29T05:34:19.958Z,35.50
2023-12-29T05:37:44.975Z,36.57
2023-12-29T05:40:54.846Z,35.53
2023-12-29T05:44:02.379Z,35.03
2023-12-29T05:47:10.981Z,34.92
2023-12-29T05:50:22.405Z,31.15
2023-12-29T05:53:25.651Z,29.77
2023-12-29T05:56:42.360Z,28.58
2023-12-29T05:59:59.979Z,33.17
2023-12-29T06:03:18.274Z,31.33
2023-12-29T06:06:42.079Z,30.70
2023-12-29T06:10:32.705Z,28.83
2023-12-29T06:13:37.425Z,30.17
2023-12-29T06:17:00.154Z,41.13
2023-12-29T06:20:22.218Z,32.45
2023-12-29T06:23:36.508Z,29.52
2023-12-29T06:26:55.941Z,30.97
2023-12-29T06:30:19.201Z,30.25
2023-12-29T06:33:34.884Z,31.25
2023-12-29T06:36:42.259Z,32.53
2023-12-29T06:39:46.457Z,32.42
2023-12-29T06:42:58.476Z,31.57
2023-12-29T06:46:21.868Z,34.00
2023-12-29T06:49:39.583Z,34.17
2023-12-29T06:53:05.879Z,34.22
2023-12-29T06:56:31.779Z,33.90
2023-12-29T07:00:00.492Z,33.07
2023-12-29T07:03:21.729Z,33.28
2023-12-29T07:06:31.650Z,34.47
2023-12-29T07:09:44.428Z,34.83
2023-12-29T07:12:49.368Z,35.50
2023-12-29T07:16:02.414Z,31.47
2023-12-29T07:19:09.947Z,31.52
2023-12-29T07:22:20.767Z,33.38
2023-12-29T07:25:24.196Z,32.20
2023-12-29T07:28:35.708Z,31.65
2023-12-29T07:32:01.669Z,32.40
2023-12-29T07:35:11.928Z,34.28
2023-12-29T07:38:28.736Z,33.85
2023-12-29T07:42:07.810Z,31.75
2023-12-29T07:45:26.170Z,31.67
2023-12-29T07:48:43.420Z,32.37
2023-12-29T07:52:08.738Z,31.42
2023-12-29T07:55:32.576Z,30.33
2023-12-29T07:58:44.830Z,29.88
2023-12-29T08:02:08.540Z,28.83
2023-12-29T08:05:26.416Z,29.53
2023-12-29T08:08:29.801Z,29.20
2023-12-29T08:11:33.318Z,30.33
2023-12-29T08:14:52.677Z,30.40
2023-12-29T08:18:22.544Z,30.90
2023-12-29T08:21:39.363Z,30.63
2023-12-29T08:25:02.630Z,31.05
2023-12-29T08:28:27.602Z,31.40
2023-12-29T08:31:42.302Z,29.50
2023-12-29T08:34:48.821Z,29.73
2023-12-29T08:38:02.860Z,29.83
2023-12-29T08:41:23.619Z,30.88
2023-12-29T08:44:44.707Z,30.92
2023-12-29T08:48:05.544Z,32.25
2023-12-29T08:51:10.096Z,32.95
2023-12-29T08:54:20.975Z,31.30
2023-12-29T08:57:25.473Z,32.25
2023-12-29T09:00:33.219Z,32.20
2023-12-29T09:03:40.439Z,31.23
2023-12-29T09:06:57.548Z,32.08
2023-12-29T09:10:19.560Z,33.17
2023-12-29T09:13:27.729Z,31.27
2023-12-29T09:16:31.727Z,31.73
2023-12-29T09:20:04.345Z,29.88
2023-12-29T09:23:21.378Z,30.88
2023-12-29T09:26:37.591Z,29.93
2023-12-29T09:29:58.277Z,30.00
2023-12-29T09:33:08.440Z,29.92
2023-12-29T09:36:35.380Z,30.27
2023-12-29T09:39:55.551Z,31.38
2023-12-29T09:43:13.304Z,28.23
2023-12-29T09:46:50.289Z,28.23
2023-12-29T09:50:11.381Z,29.80
2023-12-29T09:53:34.290Z,29.38
2023-12-29T09:56:39.471Z,29.73
2023-12-29T09:59:54.067Z,30.80
2023-12-29T10:03:05.245Z,30.88
2023-12-29T10:06:22.916Z,30.45
2023-12-29T10:09:36.052Z,28.55
2023-12-29T10:12:56.712Z,29.63
2023-12-29T10:16:50.245Z,30.40
2023-12-29T10:20:31.331Z,30.65
2023-12-29T10:23:55.295Z,31.05
2023-12-29T10:27:15.301Z,31.70
2023-12-29T10:30:37.462Z,30.52
2023-12-29T10:33:58.281Z,31.23
2023-12-29T10:37:21.347Z,32.50
2023-12-29T10:40:41.105Z,31.88
2023-12-29T10:44:00.207Z,31.85
2023-12-29T10:47:16.400Z,32.28
2023-12-29T10:50:40.218Z,32.70
2023-12-29T10:54:00.225Z,32.67
2023-12-29T10:57:28.281Z,33.92
2023-12-29T11:00:45.273Z,34.10
2023-12-29T11:04:07.387Z,33.40
2023-12-29T11:07:27.111Z,33.77
2023-12-29T11:10:50.269Z,33.85
2023-12-29T11:14:08.101Z,34.33
2023-12-29T11:17:13.766Z,34.13
2023-12-29T11:20:21.762Z,34.25
2023-12-29T11:27:18.049Z,34.03
2023-12-29T11:30:28.963Z,35.08
2023-12-29T11:33:46.063Z,33.72
2023-12-29T11:37:14.780Z,35.65
2023-12-29T11:41:18.321Z,35.20
2023-12-29T11:44:29.372Z,34.72
2023-12-29T11:47:45.493Z,36.88
2023-12-29T11:50:50.127Z,35.83
2023-12-29T11:53:56.960Z,34.92
2023-12-29T11:57:04.518Z,37.10
2023-12-29T12:00:19.214Z,47.42
2023-12-29T12:03:42.089Z,37.65
2023-12-29T12:07:04.999Z,35.78
2023-12-29T12:10:39.986Z,36.13
2023-12-29T12:13:50.468Z,36.03
2023-12-29T12:17:12.085Z,34.72
2023-12-29T12:20:29.906Z,34.38
2023-12-29T12:23:49.023Z,36.33
2023-12-29T12:27:18.128Z,35.97
2023-12-29T12:30:22.324Z,32.93
2023-12-29T12:33:29.727Z,34.33
2023-12-29T12:36:50.795Z,34.88
2023-12-29T12:39:55.696Z,34.00
2023-12-29T12:43:19.644Z,35.08
2023-12-29T12:46:47.912Z,34.17
2023-12-29T12:50:02.942Z,35.22
2023-12-29T12:53:22.399Z,35.42
2023-12-29T12:56:45.996Z,34.58
2023-12-29T13:00:04.129Z,34.88
2023-12-29T13:03:24.837Z,32.67
2023-12-29T13:06:40.425Z,33.53
2023-12-29T13:09:52.126Z,33.45
2023-12-29T13:13:02.348Z,32.72
2023-12-29T13:16:09.728Z,33.55
2023-12-29T13:19:21.169Z,32.97
2023-12-29T13:22:34.636Z,32.30
2023-12-29T13:25:41.624Z,34.45
2023-12-29T13:28:49.089Z,35.38
2023-12-29T13:32:38.861Z,33.55
2023-12-29T13:36:07.866Z,34.00
2023-12-29T13:39:49.138Z,34.45
2023-12-29T13:43:03.583Z,34.13
2023-12-29T13:46:13.042Z,33.30
2023-12-29T13:49:27.141Z,33.30
2023-12-29T13:52:31.267Z,33.37
2023-12-29T13:55:44.641Z,32.92
2023-12-29T13:59:10.635Z,34.30
2023-12-29T14:02:32.919Z,33.00
2023-12-29T14:05:53.220Z,32.38
2023-12-29T14:09:07.904Z,33.70
2023-12-29T14:12:32.509Z,32.85
2023-12-29T14:15:54.542Z,34.13
2023-12-29T14:19:18.643Z,33.38
2023-12-29T14:22:32.692Z,35.20
2023-12-29T14:25:56.655Z,34.83
2023-12-29T14:29:12.855Z,33.85
2023-12-29T14:32:19.225Z,35.03
2023-12-29T14:35:33.654Z,36.40
2023-12-29T14:38:37.870Z,34.65
2023-12-29T14:42:01.504Z,33.90
2023-12-29T14:45:23.702Z,33.42
2023-12-29T14:48:41.187Z,35.45
2023-12-29T14:51:58.457Z,35.28
2023-12-29T14:55:27.092Z,35.35
2023-12-29T14:58:50.060Z,34.33
2023-12-29T15:02:09.216Z,33.78
2023-12-29T15:05:12.413Z,35.92
2023-12-29T15:08:16.809Z,35.55
2023-12-29T15:11:27.097Z,33.90
2023-12-29T15:14:54.455Z,35.50
2023-12-29T15:18:16.080Z,37.83
2023-12-29T15:21:19.590Z,35.42
2023-12-29T15:24:35.670Z,38.42
2023-12-29T15:27:59.475Z,37.38
2023-12-29T15:31:17.775Z,36.83
2023-12-29T15:34:22.670Z,36.00
2023-12-29T15:37:30.547Z,36.80
2023-12-29T15:40:33.846Z,36.75
2023-12-29T15:43:38.213Z,36.90
2023-12-29T15:46:54.064Z,35.80
2023-12-29T15:49:57.676Z,36.08
2023-12-29T15:53:17.471Z,37.22
2023-12-29T15:56:57.333Z,36.50
2023-12-29T16:00:26.200Z,35.00
2023-12-29T16:03:45.286Z,35.57
2023-12-29T16:07:09.233Z,34.83
2023-12-29T16:10:32.608Z,36.53
2023-12-29T16:13:54.143Z,35.15
2023-12-29T16:17:04.249Z,35.03
2023-12-29T16:20:07.912Z,35.63
2023-12-29T16:23:12.797Z,35.50
2023-12-29T16:26:42.865Z,36.40
2023-12-29T16:29:57.126Z,36.22
2023-12-29T16:33:20.502Z,36.83
2023-12-29T16:36:31.393Z,36.47
2023-12-29T16:39:48.679Z,36.08
2023-12-29T16:42:57.058Z,39.08
2023-12-29T16:46:00.831Z,37.88
2023-12-29T16:49:15.481Z,37.10
2023-12-29T16:52:31.323Z,38.53
2023-12-29T16:56:01.394Z,38.35
2023-12-29T16:59:23.439Z,37.38
2023-12-29T17:02:42.663Z,37.47
2023-12-29T17:06:01.438Z,36.53
2023-12-29T17:09:28.237Z,36.53
2023-12-29T17:12:49.257Z,36.08
2023-12-29T17:16:06.539Z,36.58
2023-12-29T17:19:26.439Z,37.53
2023-12-29T17:22:52.041Z,37.03
2023-12-29T17:26:15.734Z,36.90
2023-12-29T17:29:38.694Z,38.28
2023-12-29T17:33:01.623Z,38.50
2023-12-29T17:36:16.657Z,40.20
2023-12-29T17:39:42.187Z,38.53
2023-12-29T17:43:05.214Z,40.77
2023-12-29T17:46:15.495Z,38.65
2023-12-29T17:49:35.277Z,40.45
2023-12-29T17:53:01.423Z,40.50
2023-12-29T17:56:09.015Z,38.38
2023-12-29T17:59:16.622Z,38.53
2023-12-29T18:02:37.834Z,37.95
2023-12-29T18:05:59.802Z,38.92
2023-12-29T18:09:14.742Z,38.20
2023-12-29T18:12:38.080Z,38.88
2023-12-29T18:16:08.077Z,41.97
2023-12-29T18:19:27.804Z,39.20
2023-12-29T18:22:35.533Z,40.00
2023-12-29T18:25:44.936Z,38.67
2023-12-29T18:28:48.396Z,40.38
2023-12-29T18:32:17.832Z,39.20
2023-12-29T18:35:17.064Z,38.85
2023-12-29T18:38:35.884Z,44.63
2023-12-29T18:41:52.237Z,40.67
2023-12-29T18:45:09.063Z,40.40
2023-12-29T18:48:38.600Z,40.27
2023-12-29T18:52:00.038Z,42.78
2023-12-29T18:55:17.505Z,43.63
2023-12-29T18:58:40.940Z,43.83
2023-12-29T19:02:01.277Z,42.72
2023-12-29T19:05:20.847Z,43.57
2023-12-29T19:08:37.258Z,45.25
2023-12-29T19:12:05.946Z,43.92
2023-12-29T19:15:30.285Z,41.45
2023-12-29T19:18:36.836Z,42.78
2023-12-29T19:21:44.286Z,43.63
2023-12-29T19:24:50.011Z,42.40
2023-12-29T19:28:14.099Z,43.88
2023-12-29T19:31:18.955Z,41.90
2023-12-29T19:34:22.099Z,43.33
2023-12-29T19:37:27.161Z,40.93
2023-12-29T19:40:37.938Z,42.08
2023-12-29T19:43:48.312Z,43.58
2023-12-29T19:46:52.445Z,44.30
2023-12-29T19:49:59.636Z,45.10
2023-12-29T19:53:15.897Z,44.63
2023-12-29T19:56:33.924Z,43.42
2023-12-29T19:59:54.278Z,42.90
2023-12-29T20:03:11.805Z,42.95
2023-12-29T20:06:31.113Z,51.10
2023-12-29T20:09:51.967Z,42.77
2023-12-29T20:13:15.713Z,41.75
2023-12-29T20:16:24.732Z,44.47
2023-12-29T20:19:29.185Z,44.83
2023-12-29T20:22:52.445Z,46.58
2023-12-29T20:26:02.886Z,46.20
2023-12-29T20:29:10.108Z,45.25
2023-12-29T20:32:21.083Z,44.58
2023-12-29T20:35:32.410Z,43.65
2023-12-29T20:38:39.580Z,44.70
2023-12-29T20:41:46.305Z,44.47
2023-12-29T20:44:58.181Z,42.83
2023-12-29T20:48:15.762Z,43.75
2023-12-29T20:51:28.058Z,40.75
2023-12-29T20:54:51.744Z,37.22
2023-12-29T20:58:14.590Z,38.73
2023-12-29T21:01:36.753Z,37.50
2023-12-29T21:04:40.500Z,37.42
2023-12-29T21:08:03.663Z,35.38
2023-12-29T21:11:41.685Z,37.85
2023-12-29T21:15:07.631Z,36.83
2023-12-29T21:18:23.823Z,35.45
2023-12-29T21:21:53.523Z,34.40
2023-12-29T21:25:10.656Z,34.63
2023-12-29T21:28:14.038Z,34.00
2023-12-29T21:31:21.913Z,35.33
2023-12-29T21:34:29.630Z,35.10
2023-12-29T21:37:50.313Z,35.00
2023-12-29T21:41:12.203Z,34.95
2023-12-29T21:44:36.911Z,34.65
2023-12-29T21:47:55.441Z,35.10
2023-12-29T21:51:12.708Z,37.80
2023-12-29T21:54:34.451Z,38.53
2023-12-29T21:58:03.177Z,36.65
2023-12-29T22:01:51.141Z,36.60
2023-12-29T22:05:12.955Z,36.97
2023-12-29T22:08:20.737Z,37.13
2023-12-29T22:11:31.223Z,38.80
2023-12-29T22:14:41.164Z,38.33
2023-12-29T22:18:07.462Z,38.92
2023-12-29T22:21:19.605Z,36.23
2023-12-29T22:24:29.102Z,36.80
2023-12-29T22:27:34.140Z,37.53
2023-12-29T22:30:58.327Z,38.92
2023-12-29T22:34:26.235Z,36.78
2023-12-29T22:37:42.467Z,36.70
2023-12-29T22:41:08.510Z,38.38
2023-12-29T22:44:30.293Z,35.65
2023-12-29T22:47:53.371Z,37.50
2023-12-29T22:51:19.318Z,38.10
2023-12-29T22:54:22.551Z,36.90
2023-12-29T22:57:46.443Z,37.22
2023-12-29T23:01:21.317Z,36.72
2023-12-29T23:04:43.175Z,36.92
2023-12-29T23:08:00.377Z,36.90
2023-12-29T23:11:21.408Z,35.00
2023-12-29T23:14:50.239Z,37.28
2023-12-29T23:18:16.156Z,36.33
2023-12-29T23:21:19.898Z,35.22
2023-12-29T23:24:30.082Z,35.35
2023-12-29T23:27:46.478Z,34.03
2023-12-29T23:31:24.342Z,33.00
2023-12-29T23:35:14.055Z,34.08
2023-12-29T23:38:28.065Z,34.13
2023-12-29T23:41:48.358Z,33.40
2023-12-29T23:45:11.447Z,32.10
2023-12-29T23:48:28.886Z,32.72
2023-12-29T23:51:52.248Z,33.65
2023-12-29T23:55:09.378Z,32.17
2023-12-29T23:58:29.282Z,32.25
